Overview Statistics Trail Chart Weather Telemetry Raw packets
 

This is the latest recevied weather packets stored in our database for station/object PY5AL-13. If no packets are shown the sender has not sent any weather packets the latest 10 day(s).

<< 25 26 27 28 29 >>
Time Temp. Humidity Pressure Rain* Wind** Luminosity Snow
1777059204 30.56° C 53% 1015 hPa - - - -
1777058004 30.56° C 52% 1015 hPa - - - -
1777056804 30.56° C 51% 1015.1 hPa - - - -
1777055604 31.11° C 51% 1015 hPa - - - -
1777054404 30.56° C 52% 1015.1 hPa - - - -
1777053204 30.56° C 52% 1015.4 hPa - - - -
1777052004 30.56° C 51% 1015.5 hPa - - - -
1777050805 30.56° C 51% 1015.7 hPa - - - -
1777049604 30° C 51% 1016.1 hPa - - - -
1777048405 29.44° C 54% 1016.4 hPa - - - -
1777047205 29.44° C 54% 1016.7 hPa - - - -
1777046005 29.44° C 54% 1017 hPa - - - -
1777044805 28.89° C 54% 1017.4 hPa - - - -
1777043613 28.89° C 53% 1017.9 hPa - - - -
1777042405 28.89° C 56% 1018.2 hPa - - - -
1777041205 28.33° C 56% 1018.7 hPa - - - -
1777040005 27.78° C 56% 1019.1 hPa - - - -
1777038805 27.78° C 55% 1019.5 hPa - - - -
1777037605 27.78° C 54% 1019.8 hPa - - - -
1777036405 27.22° C 56% 1020.1 hPa - - - -
1777035205 27.22° C 57% 1020.1 hPa - - - -
1777034005 27.22° C 58% 1020.2 hPa - - - -
1777032805 27.22° C 59% 1020.1 hPa - - - -
1777031605 27.22° C 58% 1020.1 hPa - - - -
1777030405 27.22° C 60% 1020 hPa - - - -

* Rain since midnight (hover to see other rain measurements)
** Current wind speed in m/s (hover to see current wind gust speed)